createdAt,value
2022-08-16T00:00:20.378Z,20.40
2022-08-16T00:02:51.779Z,20.24
2022-08-16T00:05:20.639Z,20.45
2022-08-16T00:07:48.991Z,20.51
2022-08-16T00:10:27.063Z,20.31
2022-08-16T00:12:57.098Z,20.46
2022-08-16T00:15:50.820Z,20.43
2022-08-16T00:18:22.160Z,20.40
2022-08-16T00:20:57.197Z,20.46
2022-08-16T00:23:40.488Z,20.40
2022-08-16T00:26:34.498Z,20.31
2022-08-16T00:28:59.379Z,20.32
2022-08-16T00:31:26.694Z,20.36
2022-08-16T00:34:18.015Z,20.38
2022-08-16T00:36:47.295Z,20.35
2022-08-16T00:39:17.135Z,20.20
2022-08-16T00:41:46.681Z,20.28
2022-08-16T00:44:16.049Z,20.25
2022-08-16T00:47:12.491Z,20.17
2022-08-16T00:49:44.340Z,20.12
2022-08-16T00:52:29.980Z,20.10
2022-08-16T00:55:00.052Z,20.01
2022-08-16T00:57:55.518Z,20.05
2022-08-16T01:00:19.806Z,20.01
2022-08-16T01:02:48.869Z,19.98
2022-08-16T01:05:16.432Z,20.05
2022-08-16T01:07:50.562Z,20.07
2022-08-16T01:10:31.475Z,19.97
2022-08-16T01:13:15.074Z,19.64
2022-08-16T01:15:52.826Z,19.87
2022-08-16T01:18:39.112Z,19.83
2022-08-16T01:21:25.284Z,19.73
2022-08-16T01:24:52.502Z,19.76
2022-08-16T01:27:31.186Z,19.70
2022-08-16T01:30:26.204Z,19.71
2022-08-16T01:33:02.478Z,19.71
2022-08-16T01:35:45.853Z,19.69
2022-08-16T01:38:30.274Z,19.62
2022-08-16T01:41:02.484Z,19.61
2022-08-16T01:43:33.747Z,19.61
2022-08-16T01:46:29.827Z,19.47
2022-08-16T01:49:11.314Z,19.64
2022-08-16T01:51:41.120Z,19.64
2022-08-16T01:54:13.271Z,19.68
2022-08-16T01:56:52.121Z,19.58
2022-08-16T01:59:22.521Z,19.55
2022-08-16T02:01:56.243Z,19.49
2022-08-16T02:04:48.583Z,19.45
2022-08-16T02:07:18.585Z,19.43
2022-08-16T02:09:57.536Z,19.33
2022-08-16T02:12:50.304Z,19.30
2022-08-16T02:15:25.487Z,19.21
2022-08-16T02:17:57.995Z,19.14
2022-08-16T02:20:27.843Z,19.39
2022-08-16T02:22:57.602Z,19.36
2022-08-16T02:25:25.126Z,19.31
2022-08-16T02:28:12.470Z,19.21
2022-08-16T02:30:50.036Z,19.29
2022-08-16T02:33:20.192Z,19.16
2022-08-16T02:35:58.048Z,19.14
2022-08-16T02:38:31.579Z,19.18
2022-08-16T02:41:02.411Z,19.27
2022-08-16T02:43:38.175Z,19.25
2022-08-16T02:46:08.174Z,19.24
2022-08-16T02:48:38.944Z,19.20
2022-08-16T02:51:10.880Z,19.20
2022-08-16T02:53:46.442Z,19.20
2022-08-16T02:56:18.856Z,19.13
2022-08-16T02:58:47.785Z,19.13
2022-08-16T03:01:25.021Z,19.16
2022-08-16T03:04:39.998Z,19.12
2022-08-16T03:06:56.731Z,19.10
2022-08-16T03:09:46.369Z,19.18
2022-08-16T03:12:19.477Z,19.16
2022-08-16T03:14:48.230Z,19.16
2022-08-16T03:17:18.958Z,19.19
2022-08-16T03:19:59.891Z,19.16
2022-08-16T03:22:35.192Z,19.09
2022-08-16T03:25:10.424Z,19.10
2022-08-16T03:27:41.043Z,19.10
2022-08-16T03:30:24.809Z,19.11
2022-08-16T03:32:56.070Z,19.06
2022-08-16T03:35:33.088Z,19.02
2022-08-16T03:38:34.189Z,19.10
2022-08-16T03:41:25.409Z,19.11
2022-08-16T03:43:58.707Z,19.06
2022-08-16T03:46:47.658Z,19.08
2022-08-16T03:49:35.805Z,19.06
2022-08-16T03:52:06.394Z,19.11
2022-08-16T03:54:35.957Z,19.03
2022-08-16T03:57:05.159Z,19.09
2022-08-16T03:59:33.510Z,19.09
2022-08-16T04:02:12.106Z,19.10
2022-08-16T04:04:52.018Z,19.13
2022-08-16T04:07:19.375Z,19.20
2022-08-16T04:09:48.097Z,19.35
2022-08-16T04:13:04.266Z,19.36
2022-08-16T04:15:04.727Z,19.44
2022-08-16T04:17:41.073Z,19.44
2022-08-16T04:20:31.090Z,19.51
2022-08-16T04:23:01.065Z,19.58
2022-08-16T04:25:30.425Z,19.65
2022-08-16T04:28:52.359Z,19.76
2022-08-16T04:30:48.284Z,19.83
2022-08-16T04:33:18.954Z,19.88
2022-08-16T04:35:58.088Z,19.97
2022-08-16T04:38:26.335Z,20.18
2022-08-16T04:40:57.133Z,20.31
2022-08-16T04:43:26.267Z,20.43
2022-08-16T04:46:00.227Z,20.50
2022-08-16T04:48:34.349Z,20.57
2022-08-16T04:51:12.049Z,20.61
2022-08-16T04:53:51.940Z,20.64
2022-08-16T04:56:20.744Z,20.75
2022-08-16T04:58:51.355Z,20.83
2022-08-16T05:01:21.014Z,20.92
2022-08-16T05:04:00.669Z,21.03
2022-08-16T05:06:44.697Z,21.21
2022-08-16T05:09:29.483Z,21.36
2022-08-16T05:11:58.344Z,21.42
2022-08-16T05:14:45.791Z,21.54
2022-08-16T05:17:24.714Z,21.72
2022-08-16T05:19:57.314Z,21.80
2022-08-16T05:22:38.796Z,21.96
2022-08-16T05:25:10.184Z,22.04
2022-08-16T05:27:47.084Z,22.23
2022-08-16T05:30:36.785Z,22.42
2022-08-16T05:33:16.825Z,22.58
2022-08-16T05:35:55.012Z,22.70
2022-08-16T05:38:39.611Z,22.82
2022-08-16T05:41:14.060Z,22.99
2022-08-16T05:43:46.803Z,23.10
2022-08-16T05:46:29.433Z,23.18
2022-08-16T05:49:09.644Z,23.24
2022-08-16T05:51:42.683Z,23.42
2022-08-16T05:54:20.238Z,23.56
2022-08-16T05:56:56.038Z,23.68
2022-08-16T05:59:26.936Z,23.78
2022-08-16T06:01:57.050Z,23.86
2022-08-16T06:04:35.656Z,24.04
2022-08-16T06:07:26.033Z,24.21
2022-08-16T06:10:32.278Z,24.35
2022-08-16T06:13:03.266Z,24.51
2022-08-16T06:15:31.574Z,24.62
2022-08-16T06:18:00.713Z,24.78
2022-08-16T06:20:35.561Z,24.88
2022-08-16T06:23:18.096Z,24.97
2022-08-16T06:26:14.767Z,25.12
2022-08-16T06:28:47.326Z,25.23
2022-08-16T06:31:24.992Z,25.32
2022-08-16T06:33:54.446Z,25.36
2022-08-16T06:36:24.227Z,25.50
2022-08-16T06:39:17.743Z,25.60
2022-08-16T06:42:00.229Z,25.64
2022-08-16T06:44:56.784Z,25.63
2022-08-16T06:47:53.655Z,25.74
2022-08-16T06:50:28.916Z,25.66
2022-08-16T06:53:08.714Z,25.89
2022-08-16T06:55:40.669Z,25.96
2022-08-16T06:58:22.714Z,26.14
2022-08-16T07:01:09.937Z,26.21
2022-08-16T07:03:55.380Z,26.29
2022-08-16T07:06:34.425Z,26.41
2022-08-16T07:09:09.762Z,26.51
2022-08-16T07:11:46.189Z,26.64
2022-08-16T07:14:27.147Z,26.77
2022-08-16T07:16:59.000Z,26.90
2022-08-16T07:20:01.684Z,27.04
2022-08-16T07:22:38.334Z,27.16
2022-08-16T07:25:16.707Z,27.05
2022-08-16T07:27:44.704Z,27.38
2022-08-16T07:30:45.771Z,27.04
2022-08-16T07:33:08.278Z,27.48
2022-08-16T07:35:44.520Z,27.47
2022-08-16T07:38:19.544Z,27.40
2022-08-16T07:41:09.620Z,27.37
2022-08-16T07:43:43.494Z,27.37
2022-08-16T07:46:39.559Z,27.35
2022-08-16T07:49:11.342Z,27.39
2022-08-16T07:51:42.329Z,27.40
2022-08-16T07:54:20.549Z,27.45
2022-08-16T07:56:51.870Z,27.41
2022-08-16T07:59:21.717Z,27.49
2022-08-16T08:01:49.685Z,27.65
2022-08-16T08:04:21.194Z,27.59
2022-08-16T08:06:51.196Z,27.53
2022-08-16T08:09:19.600Z,27.50
2022-08-16T08:12:00.629Z,27.48
2022-08-16T08:14:35.127Z,27.45
2022-08-16T08:17:04.890Z,27.48
2022-08-16T08:19:40.403Z,27.42
2022-08-16T08:22:19.286Z,27.62
2022-08-16T08:24:59.044Z,27.69
2022-08-16T08:27:27.708Z,27.69
2022-08-16T08:30:49.775Z,27.85
2022-08-16T08:33:01.987Z,28.00
2022-08-16T08:35:36.110Z,28.13
2022-08-16T08:38:08.341Z,28.30
2022-08-16T08:40:45.896Z,28.41
2022-08-16T08:43:18.482Z,28.45
2022-08-16T08:45:53.579Z,28.42
2022-08-16T08:48:32.969Z,28.58
2022-08-16T08:51:08.985Z,28.59
2022-08-16T08:53:43.406Z,28.82
2022-08-16T08:56:22.893Z,28.95
2022-08-16T08:58:59.945Z,29.06
2022-08-16T09:01:42.767Z,29.10
2022-08-16T09:04:24.384Z,29.21
2022-08-16T09:06:53.671Z,29.16
2022-08-16T09:09:23.336Z,29.27
2022-08-16T09:12:03.973Z,29.40
2022-08-16T09:14:49.457Z,29.31
2022-08-16T09:17:45.411Z,29.30
2022-08-16T09:20:13.741Z,29.45
2022-08-16T09:22:42.729Z,29.41
2022-08-16T09:25:12.663Z,29.51
2022-08-16T09:27:57.046Z,29.58
2022-08-16T09:30:33.172Z,29.68
2022-08-16T09:33:03.301Z,29.73
2022-08-16T09:35:39.060Z,29.90
2022-08-16T09:38:08.620Z,29.93
2022-08-16T09:40:43.291Z,29.99
2022-08-16T09:43:44.522Z,30.01
2022-08-16T09:46:04.984Z,29.91
2022-08-16T09:48:56.580Z,30.14
2022-08-16T09:51:30.767Z,30.26
2022-08-16T09:54:05.528Z,30.16
2022-08-16T09:56:35.456Z,30.14
2022-08-16T09:59:07.989Z,29.98
2022-08-16T10:01:43.575Z,30.19
2022-08-16T10:04:30.370Z,30.16
2022-08-16T10:09:54.405Z,30.35
2022-08-16T10:12:35.213Z,30.43
2022-08-16T10:15:15.791Z,30.50
2022-08-16T10:18:00.039Z,30.45
2022-08-16T10:20:37.781Z,30.31
2022-08-16T10:23:09.780Z,29.91
2022-08-16T10:27:17.213Z,30.31
2022-08-16T10:28:39.449Z,30.52
2022-08-16T10:31:14.656Z,30.70
2022-08-16T10:33:44.701Z,30.84
2022-08-16T10:36:39.120Z,30.94
2022-08-16T10:39:02.231Z,31.07
2022-08-16T10:41:32.387Z,31.13
2022-08-16T10:44:00.469Z,31.20
2022-08-16T10:46:39.110Z,31.35
2022-08-16T10:49:10.221Z,31.35
2022-08-16T10:52:02.872Z,31.42
2022-08-16T10:54:29.578Z,31.56
2022-08-16T10:56:58.460Z,31.60
2022-08-16T10:59:38.415Z,31.69
2022-08-16T11:02:58.460Z,31.72
2022-08-16T11:05:10.688Z,31.72
2022-08-16T11:07:45.563Z,31.67
2022-08-16T11:13:57.253Z,31.39
2022-08-16T11:19:05.750Z,31.35
2022-08-16T11:24:39.896Z,31.73
2022-08-16T11:27:35.283Z,31.57
2022-08-16T11:29:57.936Z,31.46
2022-08-16T11:32:32.443Z,31.53
2022-08-16T11:35:10.883Z,31.46
2022-08-16T11:40:52.800Z,31.68
2022-08-16T11:43:26.386Z,31.83
2022-08-16T11:45:55.154Z,31.87
2022-08-16T11:48:26.115Z,32.08
2022-08-16T11:50:53.606Z,32.16
2022-08-16T11:53:22.040Z,32.27
2022-08-16T11:55:50.620Z,32.27
2022-08-16T11:58:26.230Z,32.20
2022-08-16T12:00:58.186Z,32.00
2022-08-16T12:03:35.116Z,32.09
2022-08-16T12:06:10.967Z,32.02
2022-08-16T12:08:53.217Z,32.06
2022-08-16T12:11:22.839Z,32.06
2022-08-16T12:13:54.369Z,32.17
2022-08-16T12:16:21.699Z,32.16
2022-08-16T12:18:50.079Z,32.04
2022-08-16T12:21:17.951Z,31.75
2022-08-16T12:23:47.024Z,31.66
2022-08-16T12:26:14.454Z,31.74
2022-08-16T12:28:54.489Z,31.98
2022-08-16T12:31:23.180Z,32.12
2022-08-16T12:33:50.888Z,32.45
2022-08-16T12:36:23.475Z,32.49
2022-08-16T12:38:51.069Z,32.59
2022-08-16T12:41:25.456Z,32.74
2022-08-16T12:43:57.289Z,32.89
2022-08-16T12:46:30.868Z,32.60
2022-08-16T12:49:00.669Z,32.56
2022-08-16T12:51:54.325Z,32.58
2022-08-16T12:54:19.556Z,32.38
2022-08-16T12:56:47.166Z,32.35
2022-08-16T12:59:20.125Z,32.49
2022-08-16T13:01:50.620Z,32.68
2022-08-16T13:04:33.140Z,32.75
2022-08-16T13:09:42.122Z,32.45
2022-08-16T13:12:21.033Z,32.24
2022-08-16T13:14:50.336Z,32.19
2022-08-16T13:17:29.850Z,32.08
2022-08-16T13:20:13.034Z,32.05
2022-08-16T13:23:05.355Z,32.22
2022-08-16T13:25:35.857Z,32.24
2022-08-16T13:28:04.825Z,32.64
2022-08-16T13:30:42.165Z,32.56
2022-08-16T13:33:26.032Z,32.53
2022-08-16T13:35:58.573Z,32.32
2022-08-16T13:38:37.608Z,32.31
2022-08-16T13:41:11.147Z,32.32
2022-08-16T13:43:40.005Z,32.34
2022-08-16T13:46:08.135Z,32.42
2022-08-16T13:48:44.067Z,32.44
2022-08-16T13:51:19.292Z,32.48
2022-08-16T13:53:49.583Z,32.57
2022-08-16T13:56:25.365Z,32.56
2022-08-16T13:58:54.743Z,32.62
2022-08-16T14:01:22.857Z,32.74
2022-08-16T14:03:50.484Z,32.89
2022-08-16T14:06:22.432Z,32.90
2022-08-16T14:08:59.166Z,33.05
2022-08-16T14:11:34.829Z,33.15
2022-08-16T14:14:05.319Z,33.17
2022-08-16T14:16:34.937Z,33.29
2022-08-16T14:19:03.983Z,33.32
2022-08-16T14:21:34.823Z,33.42
2022-08-16T14:24:07.780Z,33.54
2022-08-16T14:26:42.012Z,33.64
2022-08-16T14:29:11.067Z,33.59
2022-08-16T14:31:39.889Z,33.51
2022-08-16T14:34:11.331Z,33.38
2022-08-16T14:36:42.106Z,33.15
2022-08-16T14:39:09.527Z,33.10
2022-08-16T14:41:37.726Z,33.23
2022-08-16T14:44:08.340Z,33.14
2022-08-16T14:46:36.894Z,33.00
2022-08-16T14:49:06.025Z,32.94
2022-08-16T14:51:37.418Z,32.98
2022-08-16T14:54:06.040Z,32.90
2022-08-16T14:56:43.116Z,32.82
2022-08-16T14:59:23.348Z,32.81
2022-08-16T15:01:59.876Z,32.93
2022-08-16T15:04:34.364Z,33.05
2022-08-16T15:07:11.273Z,33.24
2022-08-16T15:09:44.354Z,33.28
2022-08-16T15:12:30.936Z,33.32
2022-08-16T15:15:01.527Z,33.31
2022-08-16T15:17:34.094Z,33.36
2022-08-16T15:20:09.270Z,33.19
2022-08-16T15:22:44.223Z,33.10
2022-08-16T15:25:17.838Z,32.89
2022-08-16T15:27:46.352Z,32.72
2022-08-16T15:30:57.524Z,32.50
2022-08-16T15:33:19.845Z,32.24
2022-08-16T15:35:59.199Z,32.03
2022-08-16T15:38:57.963Z,31.93
2022-08-16T15:41:42.537Z,31.76
2022-08-16T15:44:13.930Z,31.67
2022-08-16T15:46:55.492Z,31.52
2022-08-16T15:49:38.134Z,31.41
2022-08-16T15:52:29.211Z,31.30
2022-08-16T15:54:59.417Z,31.34
2022-08-16T15:57:37.000Z,31.41
2022-08-16T16:00:17.535Z,31.47
2022-08-16T16:02:51.038Z,31.47
2022-08-16T16:05:20.136Z,31.43
2022-08-16T16:07:55.404Z,31.59
2022-08-16T16:10:29.851Z,31.68
2022-08-16T16:13:00.906Z,31.77
2022-08-16T16:15:34.936Z,31.74
2022-08-16T16:18:09.505Z,31.91
2022-08-16T16:20:42.512Z,32.01
2022-08-16T16:23:11.074Z,32.13
2022-08-16T16:25:43.808Z,32.11
2022-08-16T16:28:46.400Z,32.00
2022-08-16T16:31:08.047Z,31.84
2022-08-16T16:33:39.875Z,31.66
2022-08-16T16:36:11.334Z,31.50
2022-08-16T16:38:41.943Z,31.38
2022-08-16T16:41:10.585Z,31.21
2022-08-16T16:43:40.606Z,31.04
2022-08-16T16:46:40.883Z,30.88
2022-08-16T16:48:58.092Z,30.68
2022-08-16T16:51:28.101Z,30.50
2022-08-16T16:53:56.951Z,30.30
2022-08-16T16:56:50.368Z,30.15
2022-08-16T16:59:19.996Z,30.00
2022-08-16T17:01:59.900Z,29.82
2022-08-16T17:04:38.332Z,29.65
2022-08-16T17:07:10.521Z,29.56
2022-08-16T17:09:40.360Z,29.45
2022-08-16T17:12:17.659Z,29.29
2022-08-16T17:14:58.166Z,29.18
2022-08-16T17:17:27.335Z,29.11
2022-08-16T17:19:56.987Z,28.94
2022-08-16T17:22:32.736Z,28.85
2022-08-16T17:25:00.872Z,28.68
2022-08-16T17:27:32.585Z,28.57
2022-08-16T17:30:14.815Z,28.37
2022-08-16T17:32:54.560Z,28.30
2022-08-16T17:35:34.094Z,28.25
2022-08-16T17:38:06.086Z,28.20
2022-08-16T17:40:50.231Z,28.07
2022-08-16T17:43:36.139Z,28.02
2022-08-16T17:46:04.992Z,27.91
2022-08-16T17:48:36.107Z,27.67
2022-08-16T17:51:05.793Z,27.69
2022-08-16T17:53:35.536Z,27.61
2022-08-16T17:56:04.347Z,27.56
2022-08-16T17:58:31.912Z,27.44
2022-08-16T18:01:00.517Z,27.41
2022-08-16T18:04:03.118Z,27.29
2022-08-16T18:06:25.098Z,27.17
2022-08-16T18:09:03.937Z,27.09
2022-08-16T18:11:38.885Z,27.04
2022-08-16T18:14:10.329Z,27.07
2022-08-16T18:16:37.758Z,27.01
2022-08-16T18:19:05.113Z,26.88
2022-08-16T18:21:50.603Z,26.82
2022-08-16T18:24:19.108Z,26.70
2022-08-16T18:26:46.861Z,26.65
2022-08-16T18:29:14.236Z,26.64
2022-08-16T18:31:42.082Z,26.59
2022-08-16T18:34:09.413Z,26.47
2022-08-16T18:36:37.354Z,26.44
2022-08-16T18:39:08.472Z,26.43
2022-08-16T18:41:38.044Z,26.30
2022-08-16T18:44:25.115Z,26.24
2022-08-16T18:46:55.372Z,26.23
2022-08-16T18:49:22.631Z,26.18
2022-08-16T18:51:50.924Z,26.12
2022-08-16T18:54:18.664Z,26.05
2022-08-16T18:56:53.706Z,26.11
2022-08-16T18:59:26.560Z,26.09
2022-08-16T19:01:54.266Z,26.03
2022-08-16T19:04:47.771Z,25.93
2022-08-16T19:07:20.776Z,25.96
2022-08-16T19:09:48.007Z,25.95
2022-08-16T19:12:15.761Z,25.84
2022-08-16T19:14:45.710Z,25.83
2022-08-16T19:17:13.023Z,25.89
2022-08-16T19:19:40.525Z,25.86
2022-08-16T19:22:08.547Z,25.85
2022-08-16T19:24:38.178Z,25.82
2022-08-16T19:27:10.208Z,25.79
2022-08-16T19:29:37.521Z,25.79
2022-08-16T19:32:05.226Z,25.80
2022-08-16T19:34:33.756Z,25.84
2022-08-16T19:37:01.342Z,25.92
2022-08-16T19:39:32.520Z,25.86
2022-08-16T19:42:12.386Z,25.76
2022-08-16T19:44:40.567Z,25.83
2022-08-16T19:47:07.865Z,25.78
2022-08-16T19:49:35.394Z,25.81
2022-08-16T19:52:38.511Z,25.76
2022-08-16T19:55:09.064Z,25.82
2022-08-16T19:57:39.200Z,25.85
2022-08-16T20:00:17.483Z,25.86
2022-08-16T20:02:54.994Z,25.78
2022-08-16T20:05:27.200Z,25.86
2022-08-16T20:08:03.871Z,25.89
2022-08-16T20:10:32.205Z,25.83
2022-08-16T20:13:02.482Z,25.87
2022-08-16T20:15:32.146Z,25.82
2022-08-16T20:18:01.538Z,25.71
2022-08-16T20:20:28.790Z,25.58
2022-08-16T20:22:57.664Z,25.58
2022-08-16T20:25:29.146Z,25.54
2022-08-16T20:27:57.669Z,25.14
2022-08-16T20:30:25.804Z,25.29
2022-08-16T20:32:53.639Z,25.18
2022-08-16T20:35:23.886Z,25.01
2022-08-16T20:37:51.198Z,24.92
2022-08-16T20:40:28.042Z,24.70
2022-08-16T20:43:15.174Z,24.63
2022-08-16T20:45:45.387Z,24.62
2022-08-16T20:48:13.574Z,24.57
2022-08-16T20:50:41.561Z,24.69
2022-08-16T20:53:09.405Z,24.67
2022-08-16T20:55:37.568Z,24.73
2022-08-16T20:58:04.958Z,24.67
2022-08-16T21:00:33.870Z,24.69
2022-08-16T21:03:06.750Z,24.67
2022-08-16T21:05:34.399Z,24.65
2022-08-16T21:08:01.547Z,24.76
2022-08-16T21:10:28.915Z,24.77
2022-08-16T21:13:04.091Z,24.77
2022-08-16T21:15:33.239Z,24.86
2022-08-16T21:18:01.089Z,24.88
2022-08-16T21:20:29.401Z,24.88
2022-08-16T21:23:03.987Z,24.84
2022-08-16T21:25:32.658Z,24.83
2022-08-16T21:28:39.311Z,24.78
2022-08-16T21:30:48.894Z,24.85
2022-08-16T21:33:19.180Z,24.91
2022-08-16T21:35:48.221Z,24.97
2022-08-16T21:38:29.573Z,25.06
2022-08-16T21:40:59.521Z,25.02
2022-08-16T21:43:31.901Z,24.94
2022-08-16T21:46:01.291Z,24.81
2022-08-16T21:48:35.195Z,24.82
2022-08-16T21:51:06.527Z,24.74
2022-08-16T21:53:34.993Z,24.77
2022-08-16T21:56:03.089Z,24.75
2022-08-16T21:58:31.761Z,24.68
2022-08-16T22:00:59.924Z,24.61
2022-08-16T22:03:27.161Z,24.63
2022-08-16T22:06:11.075Z,24.62
2022-08-16T22:08:49.227Z,24.47
2022-08-16T22:11:25.374Z,24.42
2022-08-16T22:13:58.521Z,24.46
2022-08-16T22:16:33.394Z,24.36
2022-08-16T22:19:02.102Z,24.32
2022-08-16T22:21:30.435Z,24.41
2022-08-16T22:23:58.803Z,24.33
2022-08-16T22:26:33.038Z,24.28
2022-08-16T22:29:02.611Z,24.16
2022-08-16T22:31:30.892Z,24.27
2022-08-16T22:33:58.133Z,24.27
2022-08-16T22:36:28.305Z,24.30
2022-08-16T22:38:59.052Z,24.18
2022-08-16T22:41:28.691Z,24.16
2022-08-16T22:43:56.454Z,24.13
2022-08-16T22:46:24.244Z,24.02
2022-08-16T22:48:51.567Z,24.07
2022-08-16T22:51:24.442Z,24.06
2022-08-16T22:53:52.819Z,24.04
2022-08-16T22:56:20.746Z,24.06
2022-08-16T22:58:48.196Z,24.01
2022-08-16T23:01:17.171Z,24.05
2022-08-16T23:03:44.484Z,24.10
2022-08-16T23:06:13.868Z,24.10
2022-08-16T23:08:41.977Z,24.12
2022-08-16T23:11:21.280Z,24.08
2022-08-16T23:13:53.784Z,24.00
2022-08-16T23:16:32.500Z,24.01
2022-08-16T23:19:04.898Z,24.05
2022-08-16T23:21:33.430Z,24.13
2022-08-16T23:24:00.809Z,24.13
2022-08-16T23:26:46.266Z,24.18
2022-08-16T23:29:26.315Z,24.20
2022-08-16T23:31:58.876Z,24.22
2022-08-16T23:34:28.415Z,24.27
2022-08-16T23:36:56.660Z,24.29
2022-08-16T23:39:24.465Z,24.28
2022-08-16T23:41:52.426Z,24.18
2022-08-16T23:44:44.205Z,24.29
2022-08-16T23:47:07.326Z,24.27
2022-08-16T23:49:57.515Z,24.27
2022-08-16T23:52:39.343Z,24.22
2022-08-16T23:55:09.594Z,24.14
2022-08-16T23:57:37.569Z,24.10
